Flight Track Log - Related Links

Times and Time Zones

All times are in EST time to prevent confusion due to time zone crossing. See the UAL1084 flight status page for this flight to view local times or setup timezone preferences in your user account.

Time Position Orientation Groundspeed Altitude Reporting Facility
EST Latitude Longitude Course Direction KTS MPH feet Rate Location/Type
Sun 08:13:39 PM 29.9562 -95.3383 1000° North 175 201 700  Level FlightAware ADS-B
Sun 08:13:42 PM 29.9542 -95.3364 141° Southeast 175 201 800 2,308 Climbing FlightAware ADS-B
Sun 08:13:52 PM 29.9489 -95.3286 128° Southeast 180 207 1,200 2,000 Climbing FlightAware ADS-B
Sun 08:14:00 PM 29.9451 -95.3226 126° Southeast 190 219 1,400 1,565 Climbing FlightAware ADS-B
Sun 08:14:15 PM 29.9366 -95.3093 126° Southeast 209 241 1,800 1,929 Climbing FlightAware ADS-B
Sun 08:14:28 PM 29.9288 -95.2973 127° Southeast 223 257 2,300 3,667 Climbing FlightAware ADS-B
Sun 08:14:33 PM 29.9245 -95.2908 127° Southeast 224 258 2,900 3,600 Climbing FlightAware ADS-B (EGLF / FAB)
Sun 08:14:43 PM 29.9193 -95.2826 126° Southeast 225 259 3,200 1,920 Climbing FlightAware ADS-B
Sun 08:14:58 PM 29.9096 -95.2673 126° Southeast 240 276 3,700 2,118 Climbing FlightAware ADS-B
Sun 08:15:00 PM 29.9090 -95.2664 124° Southeast 243 280 3,800 1,091 Climbing FlightAware ADS-B
Sun 08:15:09 PM 29.9023 -95.2552 125° Southeast 254 292 3,900 353 Climbing FlightAware ADS-B
Sun 08:15:17 PM 29.8972 -95.2466 124° Southeast 261 300 3,900  Level FlightAware ADS-B
Sun 08:15:21 PM 29.8941 -95.2413 124° Southeast 262 302 3,900  Level FlightAware ADS-B
Sun 08:15:37 PM 29.8837 -95.2236 124° Southeast 265 305 3,900  Level FlightAware ADS-B
Sun 08:15:52 PM 29.8729 -95.2056 125° Southeast 265 305 3,900  Level FlightAware ADS-B
Sun 08:15:56 PM 29.8686 -95.1983 124° Southeast 265 305 3,900 -400 Level FlightAware ADS-B (EGLF / FAB)
Sun 08:16:07 PM 29.8622 -95.1878 125° Southeast 265 305 3,800  Descending FlightAware ADS-B
Sun 08:16:13 PM 29.8615 -95.1866 123° Southeast 265 305 3,900 750 Climbing FlightAware ADS-B
Sun 08:16:15 PM 29.8546 -95.1752 125° Southeast 263 303 3,900  Level FlightAware ADS-B (EGLF / FAB)
Sun 08:16:22 PM 29.8519 -95.1707 125° Southeast 264 304 3,900 375 Level FlightAware ADS-B
Sun 08:16:31 PM 29.8459 -95.1609 125° Southeast 264 304 4,000 923 Climbing FlightAware ADS-B
Sun 08:16:35 PM 29.8429 -95.1567 129° Southeast 266 306 4,100 1,714 Climbing FlightAware ADS-B
Sun 08:16:38 PM 29.8398 -95.1530 134° Southeast 268 308 4,200 1,714 Climbing FlightAware ADS-B
Sun 08:16:42 PM 29.8366 -95.1498 139° Southeast 270 311 4,300 2,571 Climbing FlightAware ADS-B
Sun 08:16:45 PM 29.8334 -95.1473 146° Southeast 270 311 4,500 3,000 Climbing FlightAware ADS-B
Sun 08:16:48 PM 29.8303 -95.1450 147° Southeast 271 312 4,600 3,000 Climbing FlightAware ADS-B
Sun 08:16:51 PM 29.8265 -95.1427 152° Southeast 272 313 4,800 3,429 Climbing FlightAware ADS-B
Sun 08:16:55 PM 29.8223 -95.1406 157° South 271 312 5,000 3,714 Climbing FlightAware ADS-B
Sun 08:17:12 PM 29.8027 -95.1315 158° South 269 310 6,100 4,000 Climbing FlightAware ADS-B
Sun 08:17:13 PM 29.8010 -95.1306 156° South 270 311 6,200 6,000 Climbing FlightAware ADS-B
Sun 08:17:16 PM 29.7946 -95.1276 158° South 271 312 6,500 3,429 Climbing FlightAware ADS-B (EGLF / FAB)
Sun 08:17:27 PM 29.7854 -95.1231 157° South 271 312 7,000 2,800 Climbing FlightAware ADS-B
Sun 08:17:31 PM 29.7814 -95.1211 156° South 272 313 7,200 4,667 Climbing FlightAware ADS-B
Sun 08:17:36 PM 29.7703 -95.1155 157° South 274 315 7,700 3,273 Climbing FlightAware ADS-B (EGLF / FAB)
Sun 08:17:42 PM 29.7674 -95.1141 157° South 275 316 7,800 1,846 Climbing FlightAware ADS-B
Sun 08:17:49 PM 29.7638 -95.1123 156° South 279 321 8,100 3,273 Climbing FlightAware ADS-B
Sun 08:17:53 PM 29.7540 -95.1074 157° South 281 323 8,400 4,286 Climbing FlightAware ADS-B
Sun 08:17:56 PM 29.7474 -95.1040 156° South 283 326 8,600 3,000 Climbing FlightAware ADS-B (EGLF / FAB)
Sun 08:18:07 PM 29.7402 -95.1004 157° South 285 328 9,100 2,769 Climbing FlightAware ADS-B
Sun 08:18:09 PM 29.7355 -95.0980 156° South 284 327 9,200 4,000 Climbing FlightAware ADS-B
Sun 08:18:16 PM 29.7269 -95.0937 156° South 284 327 9,700 2,600 Climbing FlightAware ADS-B (EGLF / FAB)
Sun 08:18:39 PM 29.6986 -95.0799 157° South 296 341 10,500 1,950 Climbing FlightAware ADS-B
Sun 08:18:56 PM 29.6727 -95.0672 157° South 327 376 11,000 1,600 Climbing FlightAware ADS-B (EGLF / FAB)
Sun 08:19:09 PM 29.6569 -95.0594 157° South 335 386 11,300 1,750 Climbing FlightAware ADS-B
Sun 08:19:20 PM 29.6434 -95.0527 157° South 340 391 11,700 3,360 Climbing FlightAware ADS-B
Sun 08:19:34 PM 29.6156 -95.0388 157° South 347 399 12,700 3,000 Climbing FlightAware ADS-B (EGLF / FAB)
Sun 08:19:40 PM 29.6130 -95.0375 155° Southeast 347 399 12,700 2,500 Level FlightAware ADS-B
Sun 08:20:10 PM 29.5678 -95.0150 157° South 352 405 14,200 3,091 Climbing FlightAware ADS-B
Sun 08:20:13 PM 29.5627 -95.0124 156° South 352 405 14,400 2,710 Climbing FlightAware ADS-B
Sun 08:20:41 PM 29.5211 -94.9918 157° South 361 415 15,600 2,644 Climbing FlightAware ADS-B
Sun 08:21:12 PM 29.4729 -94.9679 157° South 366 421 17,000 2,757 Climbing FlightAware ADS-B
Sun 08:21:18 PM 29.4636 -94.9633 157° South 366 421 17,300 3,000 Climbing FlightAware ADS-B
Sun 08:21:42 PM 29.4257 -94.9446 157° South 367 422 18,500 2,727 Climbing FlightAware ADS-B
Sun 08:22:13 PM 29.3774 -94.9209 157° South 371 427 19,800 2,647 Climbing FlightAware ADS-B
Sun 08:22:16 PM 29.3675 -94.9161 157° South 373 429 20,000 2,200 Climbing FlightAware ADS-B (EGLF / FAB)
Sun 08:22:43 PM 29.3292 -94.8973 157° South 378 435 20,900 2,323 Climbing FlightAware ADS-B
Sun 08:22:47 PM 29.3340 -94.8997 337° Northwest 380 437 21,200 2,069 Climbing FlightAware ADS-B (EGLF / FAB)
Sun 08:23:12 PM 29.2830 -94.8716 154° Southeast 392 451 21,900 1,833 Climbing FlightAware ADS-B
Sun 08:23:23 PM 29.2666 -94.8579 144° Southeast 402 463 22,300 2,400 Climbing FlightAware ADS-B
Sun 08:23:27 PM 29.2607 -94.8519 138° Southeast 406 467 22,500 2,182 Climbing FlightAware ADS-B
Sun 08:23:34 PM 29.2506 -94.8404 135° Southeast 414 476 22,700 1,800 Climbing FlightAware ADS-B
Sun 08:23:37 PM 29.2472 -94.8360 131° Southeast 418 481 22,800 2,000 Climbing FlightAware ADS-B
Sun 08:24:04 PM 29.2137 -94.7880 129° Southeast 427 491 23,700 1,875 Climbing FlightAware ADS-B
Sun 08:24:25 PM 29.1882 -94.7512 128° Southeast 433 498 24,300 1,548 Climbing FlightAware ADS-B
Sun 08:24:35 PM 29.1761 -94.7337 128° Southeast 436 502 24,500 1,615 Climbing FlightAware ADS-B
Sun 08:24:51 PM 29.1563 -94.7052 128° Southeast 439 505 25,000 1,935 Climbing FlightAware ADS-B
Sun 08:25:06 PM 29.1362 -94.6762 128° Southeast 441 507 25,500 1,696 Climbing FlightAware ADS-B
Sun 08:25:37 PM 29.0972 -94.6200 128° Southeast 448 516 26,300 1,574 Climbing FlightAware ADS-B
Sun 08:26:07 PM 29.0580 -94.5636 128° Southeast 453 521 27,100 1,500 Climbing FlightAware ADS-B
Sun 08:26:37 PM 29.0181 -94.5063 129° Southeast 460 529 27,800 1,377 Climbing FlightAware ADS-B
Sun 08:27:08 PM 28.9776 -94.4484 129° Southeast 465 535 28,500 1,333 Climbing FlightAware ADS-B
Sun 08:27:31 PM 28.9462 -94.4036 129° Southeast 471 542 29,000 1,400 Climbing FlightAware ADS-B
Sun 08:27:38 PM 28.9366 -94.3898 128° Southeast 470 541 29,200 1,385 Climbing FlightAware ADS-B
Sun 08:28:10 PM 28.8929 -94.3275 129° Southeast 475 547 29,900 1,258 Climbing FlightAware ADS-B
Sun 08:28:40 PM 28.8514 -94.2685 129° Southeast 479 551 30,500 1,479 Climbing FlightAware ADS-B
Sun 08:30:36 PM 28.6883 -94.0372 129° Southeast 472 543 33,500 1,391 Climbing FlightAware ADS-B (EGLF / FAB)
Sun 08:31:11 PM 28.6581 -93.9939 129° Southeast 472 543 34,000 938 Climbing Houston Center
Sun 08:32:12 PM 28.5767 -93.8781 129° Southeast 470 541 35,000 488 Climbing Houston Center
Sun 08:33:14 PM 28.4939 -93.7628 129° Southeast 471 542 35,000  Level Houston Center
Sun 08:34:15 PM 28.4128 -93.6483 129° Southeast 467 537 35,000  Level Houston Center
Sun 08:35:17 PM 28.3158 -93.5133 129° Southeast 463 533 35,000  Level Houston Center
Sun 08:36:18 PM 28.2347 -93.4008 129° Southeast 460 529 35,000  Level Houston Center
Sun 08:37:19 PM 28.1536 -93.2883 129° Southeast 462 532 35,000  Level Houston Center
Sun 08:38:21 PM 28.0767 -93.1803 129° Southeast 463 533 35,000  Level Houston Center
Sun 08:39:22 PM 27.9961 -93.0678 129° Southeast 462 532 35,000  Level Houston Center
Sun 08:40:24 PM 27.9150 -92.9564 129° Southeast 461 531 35,000  Level Houston Center
Sun 08:41:25 PM 27.8175 -92.8217 129° Southeast 461 531 35,000 -49 Level Houston Center
Sun 08:42:27 PM 27.7361 -92.7097 129° Southeast 461 531 34,900  Descending Houston Center
Sun 08:43:28 PM 27.6533 -92.5992 130° Southeast 463 533 35,000 49 Climbing Houston Center
Sun 08:44:30 PM 27.5725 -92.4861 129° Southeast 463 533 35,000  Level Houston Center
Sun 08:45:31 PM 27.4914 -92.3758 130° Southeast 461 531 35,000  Level Houston Center
Sun 08:47:00 PM 27.3791 -92.2224 129° Southeast  Level FlightAware Approximate
Sun 08:54:00 PM 26.7581 -91.6109 145° Southeast  Level FlightAware Approximate
Sun 08:55:00 PM 26.6607 -91.5345 145° Southeast  Level FlightAware Approximate
Sun 08:56:00 PM 26.5639 -91.4570 144° Southeast  Level FlightAware Approximate
Sun 08:57:00 PM 26.4677 -91.3788 144° Southeast  Level FlightAware Approximate
Sun 08:58:00 PM 26.3714 -91.3007 144° Southeast  Level FlightAware Approximate
Sun 08:59:00 PM 26.2737 -91.2250 146° Southeast  Level FlightAware Approximate
Sun 09:00:00 PM 26.1755 -91.1501 146° Southeast  Level FlightAware Approximate
Sun 09:01:00 PM 26.0772 -91.0753 146° Southeast  Level FlightAware Approximate
Sun 09:02:00 PM 25.9792 -91.0003 145° Southeast  Level FlightAware Approximate
Sun 09:03:00 PM 25.8822 -90.9237 145° Southeast  Level FlightAware Approximate
Sun 09:04:00 PM 25.7851 -90.8473 145° Southeast  Level FlightAware Approximate
Sun 09:05:00 PM 25.6880 -90.7710 145° Southeast  Level FlightAware Approximate
Sun 09:06:00 PM 25.5908 -90.6948 145° Southeast  Level FlightAware Approximate
Sun 09:07:00 PM 25.4936 -90.6187 145° Southeast  Level FlightAware Approximate
Sun 09:08:00 PM 25.3963 -90.5428 145° Southeast  Level FlightAware Approximate
Sun 09:09:00 PM 25.2990 -90.4670 145° Southeast  Level FlightAware Approximate
Sun 09:10:00 PM 25.2017 -90.3913 145° Southeast  Level FlightAware Approximate
Sun 09:11:00 PM 25.1044 -90.3158 145° Southeast  Level FlightAware Approximate
Sun 09:12:00 PM 25.0070 -90.2403 145° Southeast  Level FlightAware Approximate
Sun 09:13:00 PM 24.9095 -90.1650 145° Southeast  Level FlightAware Approximate
Sun 09:14:00 PM 24.8120 -90.0898 145° Southeast  Level FlightAware Approximate
Sun 09:15:00 PM 24.7145 -90.0147 145° Southeast  Level FlightAware Approximate
Sun 09:16:00 PM 24.6170 -89.9397 145° Southeast  Level FlightAware Approximate
Sun 09:17:00 PM 24.5194 -89.8649 145° Southeast  Level FlightAware Approximate
Sun 09:18:00 PM 24.4228 -89.7889 146° Southeast  Level FlightAware Approximate
Sun 09:19:00 PM 24.3238 -89.7164 146° Southeast  Level FlightAware Approximate
Sun 09:20:00 PM 24.2248 -89.6441 146° Southeast  Level FlightAware Approximate
Sun 09:21:00 PM 24.1257 -89.5718 146° Southeast  Level FlightAware Approximate
Sun 09:22:00 PM 24.0270 -89.4991 145° Southeast  Level FlightAware Approximate
Sun 09:23:00 PM 23.9292 -89.4249 145° Southeast  Level FlightAware Approximate
Sun 09:24:00 PM 23.8315 -89.3507 145° Southeast  Level FlightAware Approximate
Sun 09:25:00 PM 23.7337 -89.2766 145° Southeast  Level FlightAware Approximate
Sun 09:26:00 PM 23.6358 -89.2027 145° Southeast  Level FlightAware Approximate
Sun 09:27:00 PM 23.5380 -89.1289 145° Southeast  Level FlightAware Approximate
Sun 09:28:00 PM 23.4400 -89.0551 145° Southeast  Level FlightAware Approximate
Sun 09:29:00 PM 23.3421 -88.9815 145° Southeast  Level FlightAware Approximate
Sun 09:30:00 PM 23.2441 -88.9080 145° Southeast  Level FlightAware Approximate
Sun 09:31:00 PM 23.1461 -88.8346 145° Southeast  Level FlightAware Approximate
Sun 09:32:00 PM 23.0483 -88.7610 145° Southeast  Level FlightAware Approximate
Sun 09:33:00 PM 22.9503 -88.6876 145° Southeast  Level FlightAware Approximate
Sun 09:34:00 PM 22.8524 -88.6143 145° Southeast  Level FlightAware Approximate
Sun 09:35:00 PM 22.7554 -88.5394 144° Southeast  Level FlightAware Approximate
Sun 09:36:00 PM 22.6579 -88.4657 147° Southeast  Level FlightAware Approximate
Sun 09:37:00 PM 22.5576 -88.3962 147° Southeast  Level FlightAware Approximate
Sun 09:38:00 PM 22.4576 -88.3265 145° Southeast  Level FlightAware Approximate
Sun 09:39:00 PM 22.3598 -88.2532 145° Southeast  Level FlightAware Approximate
Sun 09:40:00 PM 22.2619 -88.1801 148° Southeast  Level FlightAware Approximate
Sun 09:41:00 PM 22.1614 -88.1114 137° Southeast  Level FlightAware Approximate
Sun 09:42:00 PM 22.0798 -88.0180 133° Southeast  Level FlightAware Approximate
Sun 09:43:00 PM 21.9991 -87.9238 133° Southeast  Level FlightAware Approximate
Sun 09:44:00 PM 21.9165 -87.8315 136° Southeast  Level FlightAware Approximate
Sun 09:45:00 PM 21.8312 -87.7421 136° Southeast  Level FlightAware Approximate
Sun 09:46:00 PM 21.7458 -87.6528 136° Southeast  Level FlightAware Approximate
Sun 09:47:00 PM 21.6604 -87.5637 136° Southeast  Level FlightAware Approximate
Sun 09:48:00 PM 21.5755 -87.4740 132° Southeast  Level FlightAware Approximate
Sun 09:49:00 PM 21.4958 -87.3791 137° Southeast  Level FlightAware Approximate
Sun 09:50:00 PM 21.4116 -87.2888 134° Southeast  Level FlightAware Approximate
Sun 09:51:00 PM 21.3289 -87.1969 134° Southeast  Level FlightAware Approximate
Sun 09:52:00 PM 21.2425 -87.1092 137° Southeast  Level FlightAware Approximate
Sun 09:53:00 PM 21.1640 -87.0141 137° Southeast  Level FlightAware Approximate
Sun 09:54:00 PM 21.0770 -86.9270 137° Southeast  Level FlightAware Approximate
Sun 09:55:00 PM 21.0365 -86.8771 137° Southeast  Level Estimated
Sun 09:56:00 PM 21.0365 -86.8771 137° Southeast  Level Estimated
Sun 09:57:00 PM 21.0365 -86.8771 137° Southeast  Level Estimated
Sun 09:58:00 PM 21.0365 -86.8771 137° Southeast  Level Estimated
Sun 09:59:00 PM 21.0365 -86.8771 137° Southeast  Level Estimated
Sun 10:00:00 PM 21.0365 -86.8771 137° Southeast  Level Estimated
Sun 10:01:00 PM 21.0365 -86.8771 137° Southeast  Level Estimated
Sun 10:02:00 PM 21.0365 -86.8771 137° Southeast  Level Estimated
Sun 10:03:00 PM 21.0365 -86.8771 137° Southeast  Level Estimated
Sun 10:04:00 PM 21.0365 -86.8771 137° Southeast  Level Estimated
Sun 10:05:00 PM 21.0365 -86.8771 137° Southeast  Level Estimated
Sun 10:06:00 PM 21.0365 -86.8771 137° Southeast  Level Estimated
Sun 10:07:00 PM 21.0365 -86.8771 137° Southeast  Level Estimated
Sun 10:08:00 PM 21.0365 -86.8771 137° Southeast  Level Estimated
Sun 10:09:00 PM 21.0365 -86.8771 137° Southeast  Level Estimated

Login

Don't have an account? Register now (free) for customized features, flight alerts, and more!